Time;durP1;ratioP1;P1;durP2;ratioP2;P2;SDS_P1;SDS_P2;PMS_P1;PMS_P2;Temp;Humidity;BMP_temperature;BMP_pressure;BME280_temperature;BME280_humidity;BME280_pressure;Samples;Min_cycle;Max_cycle;Signal;HPM_P1;HPM_P2
2022/10/25 00:00:28;;;;;;;4.18;1.67;;;14.90;99.90;;;;;;5066909;28;20471;-85
2022/10/25 00:02:54;;;;;;;2.28;1.95;;;14.90;99.90;;;;;;5066898;28;20033;-85
2022/10/25 00:05:20;;;;;;;4.22;2.45;;;14.90;99.90;;;;;;5050215;28;20043;-85
2022/10/25 00:07:45;;;;;;;4.90;1.52;;;14.90;99.90;;;;;;5066501;28;20372;-85
2022/10/25 00:10:11;;;;;;;3.38;2.10;;;14.90;99.90;;;;;;5066535;28;20058;-85
2022/10/25 00:12:44;;;;;;;5.53;2.40;;;14.90;99.90;;;;;;5068037;28;20047;-85
2022/10/25 00:15:13;;;;;;;15.05;2.97;;;14.90;99.90;;;;;;5066725;28;20080;-85
2022/10/25 00:17:39;;;;;;;6.15;1.83;;;14.90;99.90;;;;;;5046271;28;20030;-85
2022/10/25 00:20:06;;;;;;;5.03;1.92;;;14.90;99.90;;;;;;5061876;28;20021;-85
2022/10/25 00:22:31;;;;;;;1.33;0.95;;;14.90;99.90;;;;;;5049989;28;20041;-85
2022/10/25 00:24:57;;;;;;;4.22;1.13;;;14.90;99.90;;;;;;5066418;28;20033;-85
2022/10/25 00:27:23;;;;;;;1.60;1.13;;;14.90;99.90;;;;;;5049328;28;20017;-84
2022/10/25 00:29:50;;;;;;;7.20;2.70;;;14.90;99.90;;;;;;5067349;28;20071;-85
2022/10/25 00:32:16;;;;;;;5.57;1.40;;;14.90;99.90;;;;;;5066426;28;20080;-85
2022/10/25 00:34:42;;;;;;;2.72;1.48;;;14.90;99.90;;;;;;5049619;28;20033;-85
2022/10/25 00:37:07;;;;;;;5.03;1.50;;;14.80;99.90;;;;;;5065985;28;20084;-85
2022/10/25 00:39:33;;;;;;;1.85;1.50;;;14.90;99.90;;;;;;5049574;28;20186;-84
2022/10/25 00:41:59;;;;;;;8.43;2.83;;;14.80;99.90;;;;;;5067475;28;20035;-85
2022/10/25 00:44:55;;;;;;;3.78;1.15;;;14.90;99.90;;;;;;5066042;28;20131;-84
2022/10/25 00:47:21;;;;;;;7.15;1.65;;;14.80;99.90;;;;;;5065876;28;20051;-84
2022/10/25 00:50:09;;;;;;;3.50;1.55;;;14.90;99.90;;;;;;5065187;28;20025;-84
2022/10/25 00:52:38;;;;;;;4.75;1.30;;;14.80;99.90;;;;;;5049241;28;20025;-84
2022/10/25 00:55:06;;;;;;;7.90;2.53;;;14.80;99.90;;;;;;5065748;28;20022;-85
2022/10/25 00:57:40;;;;;;;2.42;1.27;;;14.80;99.90;;;;;;5066955;28;20029;-85
2022/10/25 01:00:07;;;;;;;7.50;1.67;;;14.80;99.90;;;;;;5065684;28;20068;-85
2022/10/25 01:02:33;;;;;;;6.00;1.63;;;14.80;99.90;;;;;;5065388;28;20037;-84
2022/10/25 01:04:59;;;;;;;2.45;1.48;;;14.80;99.90;;;;;;5048892;28;20063;-84
2022/10/25 01:07:25;;;;;;;2.38;1.20;;;14.80;99.90;;;;;;5045540;28;20079;-85
2022/10/25 01:09:51;;;;;;;2.83;1.40;;;14.80;99.90;;;;;;5045424;28;20018;-84
2022/10/25 01:12:17;;;;;;;3.15;1.30;;;14.70;99.90;;;;;;5062166;28;20047;-85
2022/10/25 01:14:47;;;;;;;11.25;2.53;;;14.70;99.90;;;;;;5062128;28;20073;-85
2022/10/25 01:17:16;;;;;;;1.33;1.20;;;14.70;99.90;;;;;;5051658;28;20029;-85
2022/10/25 01:19:57;;;;;;;3.88;1.10;;;14.70;99.90;;;;;;5066702;28;20076;-85
2022/10/25 01:22:37;;;;;;;4.57;1.40;;;14.70;99.90;;;;;;5048599;28;20025;-84
2022/10/25 01:25:30;;;;;;;7.43;2.25;;;14.70;99.90;;;;;;5048547;28;20037;-85
2022/10/25 01:28:38;;;;;;;2.15;1.50;;;14.70;99.90;;;;;;5065472;28;20029;-84
2022/10/25 01:31:10;;;;;;;6.68;2.10;;;14.70;99.90;;;;;;5048260;28;20048;-85
2022/10/25 01:33:50;;;;;;;6.55;1.30;;;14.70;99.90;;;;;;5066250;28;20029;-85
2022/10/25 01:36:26;;;;;;;1.88;1.13;;;14.70;99.90;;;;;;5066476;28;20172;-84
2022/10/25 01:39:25;;;;;;;3.75;2.17;;;14.70;99.90;;;;;;5066356;28;20029;-85
2022/10/25 01:42:06;;;;;;;7.20;1.77;;;14.60;99.90;;;;;;5057675;28;20471;-85
2022/10/25 01:44:45;;;;;;;2.08;1.00;;;14.70;99.90;;;;;;5065905;28;20045;-84
2022/10/25 01:47:30;;;;;;;3.80;1.63;;;14.60;99.90;;;;;;5048291;28;20101;-85
2022/10/25 01:50:07;;;;;;;6.28;1.52;;;14.60;99.90;;;;;;5048250;28;20029;-85
2022/10/25 01:52:32;;;;;;;1.48;0.93;;;14.60;99.90;;;;;;5066291;28;20120;-84
2022/10/25 01:54:58;;;;;;;3.97;1.27;;;14.60;99.90;;;;;;5064540;28;20041;-85
2022/10/25 01:57:48;;;;;;;3.08;1.52;;;14.60;99.90;;;;;;5066084;28;20025;-85
2022/10/25 02:00:18;;;;;;;;;;;14.60;99.90;;;;;;5065159;28;20036;-84
2022/10/25 02:02:53;;;;;;;4.32;0.98;;;14.60;99.90;;;;;;5064810;28;19959;-84
2022/10/25 02:05:36;;;;;;;2.83;1.38;;;14.60;99.90;;;;;;5064170;28;20033;-85
2022/10/25 02:08:27;;;;;;;6.55;1.40;;;14.60;99.90;;;;;;5048303;28;20051;-85
2022/10/25 02:11:05;;;;;;;0.77;0.77;;;14.60;99.90;;;;;;5064937;28;20033;-85
2022/10/25 02:13:52;;;;;;;3.38;1.10;;;14.60;99.90;;;;;;5065642;28;20029;-84
2022/10/25 02:16:24;;;;;;;2.92;1.42;;;14.60;99.90;;;;;;5064917;28;20060;-85
2022/10/25 02:18:57;;;;;;;4.18;1.60;;;14.60;99.90;;;;;;5066756;28;20033;-84
2022/10/25 02:21:25;;;;;;;3.97;1.77;;;14.50;99.90;;;;;;5065976;28;20031;-84
2022/10/25 02:23:52;;;;;;;6.90;1.95;;;14.50;99.90;;;;;;5064580;28;20471;-85
2022/10/25 02:26:20;;;;;;;5.60;2.22;;;14.50;99.90;;;;;;5065888;28;20063;-84
2022/10/25 02:28:46;;;;;;;6.63;1.38;;;14.50;99.90;;;;;;5064494;28;20084;-84
2022/10/25 02:31:16;;;;;;;6.47;1.83;;;14.50;99.90;;;;;;5064696;28;20033;-84
2022/10/25 02:33:43;;;;;;;;;;;14.50;99.90;;;;;;5047998;28;20116;-85
2022/10/25 02:36:20;;;;;;;4.05;1.10;;;14.50;99.90;;;;;;5064335;28;19904;-85
2022/10/25 02:38:49;;;;;;;3.05;1.60;;;14.50;99.90;;;;;;5065612;28;20071;-85
2022/10/25 02:41:16;;;;;;;5.95;1.20;;;14.50;99.90;;;;;;5065659;28;20453;-85
2022/10/25 02:43:41;;;;;;;6.40;2.45;;;14.50;99.90;;;;;;5065490;28;20053;-85
2022/10/25 02:46:10;;;;;;;4.90;1.83;;;14.50;99.90;;;;;;5065587;28;20498;-85
2022/10/25 02:48:37;;;;;;;3.78;1.45;;;14.40;99.90;;;;;;5047764;28;20017;-84
2022/10/25 02:51:04;;;;;;;7.32;1.00;;;14.60;99.90;;;;;;5065579;28;20033;-85
2022/10/25 02:53:30;;;;;;;8.32;2.08;;;14.50;99.90;;;;;;5065294;28;20025;-85
2022/10/25 02:56:18;;;;;;;4.68;1.63;;;14.50;99.90;;;;;;5064228;28;20526;-85
2022/10/25 02:58:45;;;;;;;3.22;1.73;;;14.50;99.90;;;;;;5064136;28;20033;-85
2022/10/25 03:01:12;;;;;;;4.45;0.85;;;14.50;99.90;;;;;;5065551;28;20025;-84
2022/10/25 03:03:41;;;;;;;4.38;1.48;;;14.50;99.90;;;;;;5063844;28;20037;-84
2022/10/25 03:06:08;;;;;;;1.50;1.40;;;14.40;99.90;;;;;;5064203;28;20041;-84
2022/10/25 03:08:35;;;;;;;12.98;1.85;;;14.50;99.90;;;;;;5047657;28;20068;-85
2022/10/25 03:11:04;;;;;;;4.78;1.58;;;14.40;99.90;;;;;;5046875;28;20021;-84
2022/10/25 03:13:30;;;;;;;4.65;1.40;;;14.40;99.90;;;;;;5068375;28;21055;-85
2022/10/25 03:15:56;;;;;;;5.03;2.08;;;14.40;99.90;;;;;;5051009;28;20133;-85
2022/10/25 03:18:22;;;;;;;5.03;2.40;;;14.40;99.90;;;;;;5051127;28;20037;-84
2022/10/25 03:20:49;;;;;;;6.85;2.13;;;14.40;99.90;;;;;;5068654;28;20032;-84
2022/10/25 03:23:18;;;;;;;5.15;1.30;;;14.40;99.90;;;;;;5067733;28;20056;-85
2022/10/25 03:25:43;;;;;;;5.68;1.85;;;14.40;99.90;;;;;;5050969;28;20029;-85
2022/10/25 03:28:09;;;;;;;2.53;1.48;;;14.40;99.90;;;;;;5068798;28;20080;-85
2022/10/25 03:30:35;;;;;;;7.60;1.90;;;14.40;99.90;;;;;;5067466;28;20029;-84
2022/10/25 03:33:01;;;;;;;3.63;1.52;;;14.40;99.90;;;;;;5068434;28;20057;-84
2022/10/25 03:35:27;;;;;;;3.38;1.55;;;14.40;99.90;;;;;;5067292;28;20040;-84
2022/10/25 03:37:56;;;;;;;3.03;1.30;;;14.40;99.90;;;;;;5067561;28;20025;-85
2022/10/25 03:40:22;;;;;;;10.10;3.13;;;14.40;99.90;;;;;;5068377;28;20064;-84
2022/10/25 03:42:48;;;;;;;8.82;1.17;;;14.40;99.90;;;;;;5067421;28;20025;-84
2022/10/25 03:45:17;;;;;;;6.60;2.30;;;14.40;99.90;;;;;;5050505;28;20449;-85
2022/10/25 03:47:43;;;;;;;2.77;1.53;;;14.40;99.90;;;;;;5050992;28;20060;-84
2022/10/25 03:50:09;;;;;;;7.55;1.75;;;14.40;99.90;;;;;;5066774;28;20321;-84
2022/10/25 03:52:35;;;;;;;4.25;1.27;;;14.40;99.90;;;;;;5068498;28;20059;-85
2022/10/25 03:55:02;;;;;;;4.15;1.83;;;14.40;99.90;;;;;;5067145;28;20077;-85
2022/10/25 03:57:27;;;;;;;1.10;0.90;;;14.40;99.90;;;;;;5068239;28;20048;-85
2022/10/25 03:59:53;;;;;;;3.13;1.02;;;14.40;99.90;;;;;;5046815;28;20491;-84
2022/10/25 04:02:20;;;;;;;5.55;2.35;;;14.40;99.90;;;;;;5055382;28;20028;-84
2022/10/25 04:04:46;;;;;;;18.23;2.55;;;14.40;99.90;;;;;;5067976;28;20040;-84
2022/10/25 04:07:11;;;;;;;5.72;2.25;;;14.40;99.90;;;;;;5050221;28;20029;-84
2022/10/25 04:09:37;;;;;;;9.15;2.25;;;14.40;99.90;;;;;;5066402;28;20088;-84
2022/10/25 04:12:04;;;;;;;7.38;2.33;;;14.40;99.90;;;;;;5066353;28;20031;-85
2022/10/25 04:14:30;;;;;;;4.10;1.42;;;14.30;99.90;;;;;;5066518;28;20059;-84
2022/10/25 04:16:55;;;;;;;3.40;1.58;;;14.40;99.90;;;;;;5066655;28;20120;-84
2022/10/25 04:19:21;;;;;;;2.90;1.77;;;14.30;99.90;;;;;;5066412;28;20143;-85
2022/10/25 04:21:47;;;;;;;4.00;2.08;;;14.30;99.90;;;;;;5066591;28;20037;-84
2022/10/25 04:24:13;;;;;;;3.83;1.50;;;14.30;99.90;;;;;;5067623;28;20044;-85
2022/10/25 04:26:38;;;;;;;2.75;1.33;;;14.30;99.90;;;;;;5049841;28;20025;-84
2022/10/25 04:29:05;;;;;;;6.85;1.80;;;14.30;99.90;;;;;;5066204;28;20108;-85
2022/10/25 04:31:31;;;;;;;7.47;1.17;;;14.30;99.90;;;;;;5066488;28;20041;-85
2022/10/25 04:33:57;;;;;;;5.88;1.45;;;14.30;99.90;;;;;;5049659;28;20037;-85
2022/10/25 04:36:23;;;;;;;4.57;1.13;;;14.30;99.90;;;;;;5066268;28;20024;-84
2022/10/25 04:38:51;;;;;;;4.05;1.70;;;14.30;99.90;;;;;;5065879;28;20044;-85
2022/10/25 04:41:18;;;;;;;4.43;1.50;;;14.30;99.90;;;;;;5065684;28;20036;-84
2022/10/25 04:43:45;;;;;;;3.60;1.35;;;14.30;99.90;;;;;;5065234;28;20502;-84
2022/10/25 04:46:10;;;;;;;3.38;2.13;;;14.30;99.90;;;;;;5066035;28;20028;-84
2022/10/25 04:48:38;;;;;;;8.05;1.85;;;14.30;99.90;;;;;;5060163;28;20013;-85
2022/10/25 04:51:04;;;;;;;6.88;1.73;;;14.20;99.90;;;;;;5059766;28;20031;-85
2022/10/25 04:53:31;;;;;;;4.85;1.27;;;14.30;99.90;;;;;;5065679;28;20052;-85
2022/10/25 04:56:04;;;;;;;6.50;2.17;;;14.20;99.90;;;;;;5050339;28;20036;-86
2022/10/25 04:58:31;;;;;;;8.52;2.92;;;14.30;99.90;;;;;;5047333;28;20025;-85
2022/10/25 05:01:00;;;;;;;3.83;1.20;;;14.30;99.90;;;;;;5062176;28;20024;-84
2022/10/25 05:03:27;;;;;;;3.80;1.73;;;14.20;99.90;;;;;;5064863;28;20044;-84
2022/10/25 05:05:53;;;;;;;7.82;2.63;;;14.30;99.90;;;;;;5048712;28;20048;-84
2022/10/25 05:08:19;;;;;;;10.00;2.75;;;14.20;99.90;;;;;;5048726;28;20029;-84
2022/10/25 05:10:53;;;;;;;7.75;2.00;;;14.20;99.90;;;;;;5048387;28;20017;-83
2022/10/25 05:13:19;;;;;;;3.58;1.65;;;14.20;99.90;;;;;;5065200;28;20025;-84
2022/10/25 05:15:53;;;;;;;3.47;2.30;;;14.20;99.90;;;;;;5064550;28;20049;-84
2022/10/25 05:18:19;;;;;;;11.93;2.40;;;14.20;99.90;;;;;;5048627;28;20033;-84
2022/10/25 05:21:00;;;;;;;2.33;1.08;;;14.20;99.90;;;;;;5045218;28;20041;-84
2022/10/25 05:23:26;;;;;;;11.77;3.17;;;14.20;99.90;;;;;;5051683;28;20039;-84
2022/10/25 05:26:16;;;;;;;5.35;1.83;;;14.20;99.90;;;;;;5064919;28;20104;-84
2022/10/25 05:28:43;;;;;;;6.50;2.05;;;14.20;99.90;;;;;;5067058;28;20048;-84
2022/10/25 05:31:17;;;;;;;3.22;1.55;;;14.20;99.90;;;;;;5081391;28;20028;-84
2022/10/25 05:33:44;;;;;;;8.38;1.85;;;14.20;99.90;;;;;;5048223;28;20487;-84
2022/10/25 05:36:11;;;;;;;9.45;2.22;;;14.10;99.90;;;;;;5067666;28;20044;-84
2022/10/25 05:38:37;;;;;;;3.03;2.00;;;14.10;99.90;;;;;;5066135;28;20089;-84
2022/10/25 05:41:04;;;;;;;6.28;2.45;;;14.10;99.90;;;;;;5065696;28;20029;-84
2022/10/25 05:43:29;;;;;;;4.80;2.40;;;14.10;99.90;;;;;;5066368;28;20483;-84
2022/10/25 05:46:08;;;;;;;5.50;1.98;;;14.10;99.90;;;;;;5064526;28;20111;-85
2022/10/25 05:48:36;;;;;;;6.63;1.50;;;14.10;99.90;;;;;;5065104;28;20029;-83
2022/10/25 05:51:32;;;;;;;9.35;2.92;;;14.10;99.90;;;;;;5048129;28;20075;-83
2022/10/25 05:54:00;;;;;;;4.25;1.73;;;14.10;99.90;;;;;;5040963;28;20045;-84
2022/10/25 05:56:28;;;;;;;7.07;2.25;;;14.10;99.90;;;;;;5080979;28;20027;-84
2022/10/25 05:58:57;;;;;;;6.75;1.88;;;14.10;99.90;;;;;;5081703;28;20033;-84
2022/10/25 06:01:25;;;;;;;3.45;1.73;;;14.00;99.90;;;;;;5081625;28;20467;-84
2022/10/25 06:03:52;;;;;;;6.05;1.17;;;14.10;99.90;;;;;;5063479;28;20028;-84
2022/10/25 06:06:19;;;;;;;6.35;2.40;;;14.00;99.90;;;;;;5064517;28;20040;-84
2022/10/25 06:08:46;;;;;;;5.53;2.70;;;13.90;99.90;;;;;;5081358;28;20043;-86
2022/10/25 06:11:15;;;;;;;2.63;1.33;;;14.00;99.90;;;;;;5032374;28;20045;-86
2022/10/25 06:13:41;;;;;;;5.07;2.97;;;14.00;99.90;;;;;;5044731;28;20036;-87
2022/10/25 06:16:11;;;;;;;18.90;3.83;;;14.00;99.90;;;;;;5044514;28;20530;-87
2022/10/25 06:18:40;;;;;;;5.45;1.33;;;14.00;99.90;;;;;;5044669;28;20029;-87
2022/10/25 06:21:08;;;;;;;5.47;2.63;;;14.00;99.90;;;;;;5082633;28;20459;-87
2022/10/25 06:23:35;;;;;;;6.43;1.80;;;14.00;99.90;;;;;;5071562;28;20029;-87
2022/10/25 06:26:03;;;;;;;2.22;1.98;;;14.00;99.90;;;;;;5066480;28;20033;-87
2022/10/25 06:28:29;;;;;;;6.13;3.10;;;14.00;99.90;;;;;;5067244;28;20027;-88
2022/10/25 06:31:03;;;;;;;2.65;2.05;;;14.00;99.90;;;;;;5069297;28;20024;-86
2022/10/25 06:33:29;;;;;;;7.25;2.55;;;14.00;99.90;;;;;;5084961;28;20436;-87
2022/10/25 06:35:56;;;;;;;6.90;2.30;;;14.00;99.90;;;;;;5067816;28;20036;-87
2022/10/25 06:38:22;;;;;;;17.45;2.75;;;14.00;99.90;;;;;;5083878;28;20035;-87
2022/10/25 06:40:48;;;;;;;6.07;3.08;;;14.00;99.90;;;;;;5083204;28;20119;-87
2022/10/25 06:43:14;;;;;;;6.05;2.25;;;14.00;99.90;;;;;;5067471;28;20035;-88
2022/10/25 06:45:41;;;;;;;5.35;2.78;;;14.00;99.90;;;;;;5051270;28;20024;-88
2022/10/25 06:48:07;;;;;;;6.05;1.88;;;14.00;99.90;;;;;;5087301;28;20039;-88
2022/10/25 06:50:32;;;;;;;4.85;2.67;;;14.00;99.90;;;;;;5086505;28;20036;-87
2022/10/25 06:52:59;;;;;;;4.43;2.33;;;14.00;99.90;;;;;;5088616;28;20382;-88
2022/10/25 06:55:24;;;;;;;2.80;1.52;;;14.00;99.90;;;;;;5089299;28;20035;-88
2022/10/25 06:57:54;;;;;;;2.28;1.20;;;14.00;99.90;;;;;;5071525;28;20032;-88
2022/10/25 07:00:20;;;;;;;6.75;2.47;;;14.00;99.90;;;;;;5071695;28;20104;-88
2022/10/25 07:02:53;;;;;;;2.35;1.92;;;14.00;99.90;;;;;;5051442;28;20541;-87
2022/10/25 07:05:19;;;;;;;4.10;1.73;;;14.00;99.90;;;;;;5067922;28;20434;-87
2022/10/25 07:07:45;;;;;;;12.07;3.28;;;14.00;99.90;;;;;;5051479;28;20059;-89
2022/10/25 07:10:10;;;;;;;3.22;2.70;;;14.00;99.90;;;;;;5081048;28;20025;-88
2022/10/25 07:12:36;;;;;;;8.18;3.72;;;14.00;99.90;;;;;;5087774;28;20025;-88
2022/10/25 07:15:03;;;;;;;21.23;3.30;;;14.00;99.90;;;;;;5070661;28;20052;-88
2022/10/25 07:17:29;;;;;;;11.13;2.75;;;14.00;99.90;;;;;;5087765;28;20036;-88
2022/10/25 07:19:56;;;;;;;4.30;2.85;;;14.00;99.90;;;;;;5076752;28;20060;-87
2022/10/25 07:22:23;;;;;;;7.65;4.55;;;14.00;99.90;;;;;;5067821;28;20060;-88
2022/10/25 07:24:49;;;;;;;3.45;2.15;;;13.90;99.90;;;;;;5068744;28;20017;-88
2022/10/25 07:27:15;;;;;;;6.72;3.80;;;14.00;99.90;;;;;;5068836;28;20094;-88
2022/10/25 07:29:40;;;;;;;4.25;1.92;;;14.00;99.90;;;;;;5069540;28;20483;-88
2022/10/25 07:32:08;;;;;;;7.45;3.03;;;14.00;99.90;;;;;;5081129;28;20048;-88
2022/10/25 07:34:34;;;;;;;6.72;3.15;;;14.00;99.90;;;;;;5067282;28;20055;-87
2022/10/25 07:37:00;;;;;;;7.15;1.95;;;14.00;99.90;;;;;;5050731;28;20033;-87
2022/10/25 07:39:26;;;;;;;4.82;2.20;;;14.00;99.90;;;;;;5068580;28;20017;-88
2022/10/25 07:41:53;;;;;;;9.27;2.90;;;14.00;99.90;;;;;;5068227;28;20033;-88
2022/10/25 07:44:21;;;;;;;5.13;3.20;;;14.00;99.90;;;;;;5067231;28;20029;-88
2022/10/25 07:46:48;;;;;;;10.50;2.50;;;14.00;99.90;;;;;;5050424;28;20432;-88
2022/10/25 07:49:14;;;;;;;2.33;2.13;;;14.00;99.90;;;;;;5068312;28;20048;-87
2022/10/25 07:51:40;;;;;;;3.92;2.42;;;14.00;99.90;;;;;;5083726;28;20028;-87
2022/10/25 07:54:06;;;;;;;5.93;2.42;;;14.00;99.90;;;;;;5070532;28;20017;-88
2022/10/25 07:56:32;;;;;;;11.20;3.83;;;14.00;99.90;;;;;;5088256;28;20024;-88
2022/10/25 07:58:58;;;;;;;10.23;3.40;;;14.00;99.90;;;;;;5084107;28;20025;-89
2022/10/25 08:01:26;;;;;;;6.53;4.00;;;14.00;99.90;;;;;;5068114;28;20047;-88
2022/10/25 08:03:53;;;;;;;9.10;3.30;;;14.00;99.90;;;;;;5066871;28;20089;-88
2022/10/25 08:06:20;;;;;;;5.15;2.28;;;14.10;99.90;;;;;;5066757;28;20029;-89
2022/10/25 08:08:46;;;;;;;9.68;3.33;;;14.10;99.90;;;;;;5050046;28;20017;-89
2022/10/25 08:11:12;;;;;;;7.53;3.50;;;14.10;99.90;;;;;;5050027;28;20545;-88
2022/10/25 08:13:39;;;;;;;4.38;3.47;;;14.10;99.90;;;;;;5083370;28;20028;-88
2022/10/25 08:16:06;;;;;;;5.95;3.38;;;14.10;99.90;;;;;;5066461;28;20044;-88
2022/10/25 08:18:32;;;;;;;3.38;2.60;;;14.10;99.90;;;;;;5070113;28;20078;-88
2022/10/25 08:21:00;;;;;;;5.25;3.60;;;14.10;99.90;;;;;;5047379;28;20033;-88
2022/10/25 08:23:26;;;;;;;5.00;2.60;;;14.10;99.90;;;;;;5049478;28;20053;-88
2022/10/25 08:25:52;;;;;;;8.15;4.80;;;14.20;99.90;;;;;;5065760;28;20553;-88
2022/10/25 08:28:19;;;;;;;7.13;2.85;;;14.20;99.90;;;;;;5066227;28;20032;-88
2022/10/25 08:30:45;;;;;;;10.60;2.85;;;14.20;99.90;;;;;;5065785;28;20029;-88
2022/10/25 08:33:11;;;;;;;6.20;3.72;;;14.20;99.90;;;;;;5082436;28;20025;-88
2022/10/25 08:35:36;;;;;;;9.15;2.58;;;14.30;99.90;;;;;;5066110;28;20029;-85
2022/10/25 08:38:03;;;;;;;4.25;3.20;;;14.30;99.90;;;;;;5065462;28;20031;-85
2022/10/25 08:40:44;;;;;;;10.80;2.53;;;14.30;99.90;;;;;;5065643;28;20033;-85
2022/10/25 08:43:35;;;;;;;7.28;4.22;;;14.30;99.90;;;;;;5065782;28;20088;-85
2022/10/25 08:46:32;;;;;;;4.93;3.70;;;14.30;99.90;;;;;;5070080;28;20025;-86
2022/10/25 08:49:07;;;;;;;2.80;2.50;;;14.30;99.90;;;;;;5085111;28;20029;-85
2022/10/25 09:11:01;;;;;;;9.32;3.08;;;14.60;99.90;;;;;;5104886;27;20405;-87
2022/10/25 09:13:39;;;;;;;7.43;3.15;;;14.70;99.90;;;;;;5089396;28;20029;-85
2022/10/25 09:16:11;;;;;;;7.88;3.17;;;14.70;99.90;;;;;;5106503;28;20050;-86
2022/10/25 09:18:49;;;;;;;11.80;4.07;;;14.80;99.90;;;;;;5087897;28;20050;-86
2022/10/25 09:21:49;;;;;;;13.65;3.78;;;14.80;99.90;;;;;;5105605;28;20025;-87
2022/10/25 09:24:52;;;;;;;2.95;1.80;;;14.80;99.90;;;;;;5065916;28;20032;-86
2022/10/25 09:27:34;;;;;;;10.13;2.15;;;14.80;99.90;;;;;;5103998;28;20024;-85
2022/10/25 09:30:05;;;;;;;5.60;3.28;;;14.80;99.90;;;;;;5088653;28;20496;-86
2022/10/25 09:32:48;;;;;;;2.70;1.70;;;14.80;99.90;;;;;;5116716;28;20027;-86
2022/10/25 09:35:16;;;;;;;3.92;2.15;;;14.80;99.90;;;;;;5082856;28;20116;-85
2022/10/25 09:37:57;;;;;;;18.52;3.00;;;14.80;99.90;;;;;;5065789;28;20024;-86
2022/10/25 09:41:00;;;;;;;3.65;1.27;;;14.70;99.90;;;;;;5102773;28;20390;-85
2022/10/25 09:43:34;;;;;;;4.05;2.47;;;14.80;99.90;;;;;;5103798;28;20028;-86
2022/10/25 09:46:11;;;;;;;4.43;2.72;;;14.80;99.90;;;;;;5102608;28;20032;-86
2022/10/25 09:48:52;;;;;;;8.52;2.50;;;14.80;99.90;;;;;;5100950;28;20033;-86
2022/10/25 09:51:43;;;;;;;7.80;1.60;;;14.80;99.90;;;;;;5083255;28;20033;-86
2022/10/25 09:54:29;;;;;;;5.68;2.13;;;14.90;99.90;;;;;;5099098;28;20041;-87
2022/10/25 09:56:55;;;;;;;4.88;2.40;;;14.90;99.90;;;;;;5084480;28;20035;-86
2022/10/25 09:59:21;;;;;;;2.28;2.05;;;14.90;99.90;;;;;;5074560;28;20111;-87
2022/10/25 10:01:47;;;;;;;2.03;1.70;;;14.90;99.90;;;;;;5085838;28;20028;-88
2022/10/25 10:04:23;;;;;;;5.28;2.75;;;14.90;99.90;;;;;;5085548;28;20021;-86
2022/10/25 10:06:52;;;;;;;11.93;3.35;;;14.90;99.90;;;;;;5102070;28;20077;-87
2022/10/25 10:09:18;;;;;;;7.25;2.47;;;14.90;99.90;;;;;;5080083;28;20064;-87
2022/10/25 10:11:46;;;;;;;12.35;3.80;;;14.90;99.90;;;;;;5067732;28;20029;-87
2022/10/25 10:14:40;;;;;;;9.52;3.15;;;14.90;99.90;;;;;;5051359;28;20099;-86
2022/10/25 10:17:12;;;;;;;11.88;1.98;;;15.00;99.90;;;;;;5069122;28;20112;-87
2022/10/25 10:19:39;;;;;;;11.43;3.13;;;15.00;99.90;;;;;;5059150;28;20106;-88
2022/10/25 10:22:13;;;;;;;9.90;2.50;;;15.00;99.90;;;;;;5085367;28;20029;-86
2022/10/25 10:24:42;;;;;;;7.90;2.35;;;15.00;99.90;;;;;;5068411;28;20032;-87
2022/10/25 10:27:24;;;;;;;1.95;1.65;;;15.00;99.90;;;;;;5055260;28;20482;-86
2022/10/25 10:30:04;;;;;;;3.80;1.67;;;14.90;99.90;;;;;;5067770;28;20087;-86
2022/10/25 10:32:39;;;;;;;3.70;1.67;;;15.00;99.90;;;;;;5085970;28;20029;-87
2022/10/25 10:35:07;;;;;;;7.45;2.40;;;15.00;99.90;;;;;;5088909;28;20028;-87
2022/10/25 10:37:33;;;;;;;6.45;2.15;;;15.00;99.90;;;;;;5080538;28;20025;-87
2022/10/25 10:40:22;;;;;;;8.95;1.85;;;15.00;99.90;;;;;;5074657;28;20040;-87
2022/10/25 10:42:48;;;;;;;2.45;1.25;;;15.00;99.90;;;;;;5080964;28;20088;-86
2022/10/25 10:45:16;;;;;;;5.07;1.85;;;15.00;99.90;;;;;;5088700;28;20393;-86
2022/10/25 10:47:50;;;;;;;3.67;1.20;;;15.20;99.90;;;;;;5070735;28;20013;-87
2022/10/25 10:50:21;;;;;;;7.85;1.85;;;15.00;99.90;;;;;;5087780;28;20099;-87
2022/10/25 10:53:02;;;;;;;6.13;2.60;;;15.10;99.90;;;;;;5065241;28;20021;-87
2022/10/25 10:55:33;;;;;;;7.07;2.38;;;15.20;99.90;;;;;;5067602;28;20029;-87
2022/10/25 10:58:04;;;;;;;3.42;1.98;;;15.30;99.90;;;;;;5068328;28;20037;-87
2022/10/25 11:00:32;;;;;;;2.53;1.40;;;15.40;99.90;;;;;;5050715;28;20033;-87
2022/10/25 11:02:58;;;;;;;5.97;2.10;;;15.50;99.90;;;;;;5068315;28;20021;-87
2022/10/25 11:05:30;;;;;;;3.42;2.60;;;15.60;99.90;;;;;;5084389;28;20035;-88
2022/10/25 11:08:06;;;;;;;5.78;2.42;;;15.60;99.90;;;;;;5070127;28;20092;-88
2022/10/25 11:10:36;;;;;;;2.08;1.33;;;15.70;99.90;;;;;;5080153;28;20043;-87
2022/10/25 11:13:21;;;;;;;2.90;1.23;;;15.70;99.90;;;;;;5060460;28;20754;-87
2022/10/25 11:16:05;;;;;;;8.93;1.33;;;15.60;99.90;;;;;;5071806;28;20082;-87
2022/10/25 11:18:41;;;;;;;3.05;1.98;;;15.60;99.90;;;;;;5052755;28;20033;-87
2022/10/25 11:21:40;;;;;;;7.97;2.22;;;15.60;99.90;;;;;;5068041;28;20074;-87
2022/10/25 11:24:46;;;;;;;3.22;1.25;;;15.60;99.90;;;;;;5067245;28;20124;-87
2022/10/25 11:27:24;;;;;;;3.28;1.58;;;15.60;99.90;;;;;;5068600;28;20054;-87
2022/10/25 11:30:18;;;;;;;2.70;1.50;;;15.70;99.90;;;;;;5062153;28;20040;-86
2022/10/25 11:33:03;;;;;;;5.70;1.35;;;15.60;99.90;;;;;;5069609;28;20029;-87
2022/10/25 11:35:48;;;;;;;8.30;1.48;;;15.60;99.90;;;;;;5071313;28;20039;-87
2022/10/25 11:38:35;;;;;;;4.05;1.33;;;15.60;99.90;;;;;;5087497;28;20111;-87
2022/10/25 11:41:05;;;;;;;3.75;1.33;;;15.70;99.90;;;;;;5070029;28;20027;-87
2022/10/25 11:43:59;;;;;;;4.95;2.17;;;15.70;99.90;;;;;;5083599;28;20052;-87
2022/10/25 11:46:35;;;;;;;5.15;0.60;;;15.70;99.90;;;;;;5089975;28;20028;-87
2022/10/25 11:49:20;;;;;;;8.10;1.95;;;15.70;99.90;;;;;;5072528;28;20033;-87
2022/10/25 12:04:28;;;;;;;3.25;1.23;;;16.50;99.90;;;;;;5103276;27;20411;-87
2022/10/25 12:07:07;;;;;;;2.70;1.73;;;16.10;99.90;;;;;;5101583;28;20443;-88
2022/10/25 12:09:35;;;;;;;4.82;1.67;;;16.10;99.90;;;;;;5085187;28;20032;-87
2022/10/25 12:12:08;;;;;;;3.28;1.95;;;16.10;99.90;;;;;;5101302;28;20058;-87
2022/10/25 12:14:40;;;;;;;1.63;1.52;;;16.30;99.90;;;;;;5081812;28;20079;-87
2022/10/25 12:17:27;;;;;;;2.40;0.90;;;16.40;99.90;;;;;;5064929;28;20028;-88
2022/10/25 12:19:59;;;;;;;3.22;1.15;;;16.50;99.90;;;;;;5081535;28;20029;-88
2022/10/25 12:22:41;;;;;;;4.25;1.42;;;16.60;99.90;;;;;;5065543;28;20048;-87
2022/10/25 12:25:22;;;;;;;9.55;1.33;;;16.70;99.90;;;;;;5081733;28;20106;-88
2022/10/25 12:27:59;;;;;;;3.08;1.23;;;16.80;99.90;;;;;;5084330;28;20081;-88
2022/10/25 12:30:26;;;;;;;7.22;1.42;;;16.80;99.90;;;;;;5101614;28;20031;-87
2022/10/25 12:33:03;;;;;;;5.20;1.02;;;16.90;99.90;;;;;;5084484;28;20024;-87
2022/10/25 12:35:34;;;;;;;5.15;1.17;;;17.00;99.90;;;;;;5101844;28;20061;-90
2022/10/25 12:38:05;;;;;;;0.60;0.50;;;17.00;99.90;;;;;;5084174;28;20044;-89
2022/10/25 12:40:37;;;;;;;2.90;1.15;;;17.00;99.90;;;;;;5100985;28;20033;-86
2022/10/25 12:43:15;;;;;;;3.72;1.05;;;17.10;99.90;;;;;;5101700;28;20054;-88
2022/10/25 12:46:04;;;;;;;4.32;1.33;;;17.20;99.90;;;;;;5101739;28;20035;-86
2022/10/25 12:48:51;;;;;;;3.15;1.13;;;17.20;99.90;;;;;;5081197;28;20100;-90
2022/10/25 12:51:20;;;;;;;5.30;1.33;;;17.00;99.90;;;;;;5081233;28;20545;-87
2022/10/25 12:54:24;;;;;;;1.42;0.70;;;16.90;99.90;;;;;;5080897;28;20104;-90
2022/10/25 12:57:00;;;;;;;2.35;1.05;;;16.80;99.90;;;;;;5071348;28;20041;-89
2022/10/25 12:59:51;;;;;;;2.33;1.52;;;16.70;99.90;;;;;;5063945;28;20029;-89
2022/10/25 13:02:38;;;;;;;4.95;1.65;;;16.60;99.90;;;;;;5088797;28;20052;-87
2022/10/25 13:05:30;;;;;;;2.95;1.52;;;16.60;99.90;;;;;;5064473;28;20028;-89
2022/10/25 13:08:03;;;;;;;4.28;0.98;;;16.50;99.90;;;;;;5070102;28;20474;-90
2022/10/25 13:10:34;;;;;;;7.13;1.33;;;16.40;99.90;;;;;;5087666;28;20042;-89
2022/10/25 13:13:05;;;;;;;6.03;1.13;;;16.40;99.90;;;;;;5079008;28;20037;-89
2022/10/25 13:15:49;;;;;;;5.10;1.05;;;16.40;99.90;;;;;;5061466;28;20064;-90
2022/10/25 13:18:30;;;;;;;5.38;1.33;;;16.50;99.90;;;;;;5073134;28;20036;-88
2022/10/25 13:20:58;;;;;;;4.93;1.02;;;16.40;99.90;;;;;;5067508;28;20052;-90
2022/10/25 13:23:43;;;;;;;3.60;1.92;;;16.40;99.90;;;;;;5065036;28;20088;-88
2022/10/25 13:26:17;;;;;;;4.45;3.00;;;16.50;99.90;;;;;;5065056;28;20028;-88
2022/10/25 13:28:50;;;;;;;8.15;3.03;;;16.60;99.90;;;;;;5079488;28;20032;-89
2022/10/25 13:31:28;;;;;;;5.85;2.80;;;16.80;99.90;;;;;;5070970;28;20029;-88
2022/10/25 13:34:12;;;;;;;11.25;3.17;;;16.90;99.90;;;;;;5080795;28;20039;-89
2022/10/25 13:36:52;;;;;;;10.52;3.22;;;17.00;99.90;;;;;;5087173;28;20046;-89
2022/10/25 13:39:21;;;;;;;;;;;16.90;99.90;;;;;;5030799;28;20040;-89
2022/10/25 13:41:47;;;;;;;9.38;3.40;;;16.90;99.90;;;;;;5043217;28;19905;-88